createdAt,value
2022-08-22T04:04:09.388Z,2.45
2022-08-22T04:08:58.749Z,2.20
2022-08-22T04:13:29.904Z,2.20
2022-08-22T04:18:02.309Z,2.10
2022-08-22T04:22:33.333Z,2.50
2022-08-22T04:26:55.754Z,2.15
2022-08-22T04:31:17.587Z,2.20
2022-08-22T04:35:42.764Z,2.33
2022-08-22T04:40:03.001Z,2.42
2022-08-22T04:44:17.589Z,2.08
2022-08-22T04:48:42.317Z,2.20
2022-08-22T04:53:09.391Z,2.42
2022-08-22T04:58:00.359Z,2.33
2022-08-22T05:02:20.366Z,2.20
2022-08-22T05:06:37.723Z,2.50
2022-08-22T05:10:51.886Z,2.20
2022-08-22T05:15:13.586Z,2.20
2022-08-22T05:19:32.366Z,2.70
2022-08-22T05:23:49.513Z,2.35
2022-08-22T05:28:33.778Z,2.25
2022-08-22T05:33:03.384Z,2.00
2022-08-22T05:37:24.075Z,1.80
2022-08-22T05:41:39.107Z,2.08
2022-08-22T05:45:51.208Z,1.98
2022-08-22T05:50:02.796Z,2.38
2022-08-22T05:54:20.050Z,2.33
2022-08-22T05:58:43.562Z,2.33
2022-08-22T06:03:04.267Z,2.30
2022-08-22T06:07:35.040Z,2.38
2022-08-22T06:12:05.097Z,2.58
2022-08-22T06:16:39.214Z,2.10
2022-08-22T06:21:02.384Z,2.30
2022-08-22T06:25:21.869Z,2.60
2022-08-22T06:29:40.256Z,2.63
2022-08-22T06:34:03.926Z,2.10
2022-08-22T06:38:16.142Z,2.25
2022-08-22T06:42:32.440Z,1.65
2022-08-22T06:46:47.613Z,1.98
2022-08-22T06:50:59.839Z,2.53
2022-08-22T06:55:11.739Z,2.42
2022-08-22T06:59:28.946Z,2.50
2022-08-22T07:03:46.114Z,2.42
2022-08-22T07:07:58.042Z,2.10
2022-08-22T07:12:19.411Z,2.00
2022-08-22T07:16:55.147Z,2.10
2022-08-22T07:21:08.422Z,2.05
2022-08-22T07:25:21.346Z,2.28
2022-08-22T07:29:49.606Z,2.47
2022-08-22T07:34:07.159Z,2.33
2022-08-22T07:38:35.641Z,2.17
2022-08-22T07:42:54.727Z,2.17
2022-08-22T07:47:16.385Z,1.90
2022-08-22T07:51:53.147Z,2.17
2022-08-22T07:56:07.371Z,2.40
2022-08-22T08:00:21.299Z,2.42
2022-08-22T08:04:40.189Z,2.30
2022-08-22T08:08:53.434Z,2.50
2022-08-22T08:13:11.530Z,2.70
2022-08-22T08:17:31.506Z,2.70
2022-08-22T08:21:53.522Z,2.28
2022-08-22T08:26:23.123Z,2.53
2022-08-22T08:30:36.790Z,2.72
2022-08-22T08:34:48.469Z,2.60
2022-08-22T08:39:19.152Z,2.90
2022-08-22T08:43:43.389Z,2.72
2022-08-22T08:48:03.809Z,2.38
2022-08-22T08:52:38.703Z,2.72
2022-08-22T08:57:09.071Z,2.70
2022-08-22T09:01:44.737Z,2.75
2022-08-22T09:06:25.235Z,2.95
2022-08-22T09:11:09.987Z,2.72
2022-08-22T09:15:31.768Z,2.42
2022-08-22T09:20:17.808Z,3.05
2022-08-22T09:24:56.015Z,2.80
2022-08-22T09:29:22.989Z,2.72
2022-08-22T09:33:44.303Z,2.60
2022-08-22T09:38:11.203Z,3.00
2022-08-22T09:42:29.630Z,2.88
2022-08-22T09:46:49.931Z,2.92
2022-08-22T09:51:31.550Z,2.80
2022-08-22T09:55:55.913Z,2.90
2022-08-22T10:00:23.258Z,2.63
2022-08-22T10:04:56.260Z,2.53
2022-08-22T10:09:31.433Z,2.63
2022-08-22T10:13:57.248Z,2.78
2022-08-22T10:18:35.563Z,2.53
2022-08-22T10:23:11.925Z,2.58
2022-08-22T10:27:49.546Z,2.42
2022-08-22T10:32:26.977Z,2.67
2022-08-22T10:36:45.074Z,2.40
2022-08-22T10:41:09.428Z,2.72
2022-08-22T10:45:36.253Z,2.60
2022-08-22T10:49:56.672Z,2.55
2022-08-22T10:54:32.708Z,2.60
2022-08-22T10:58:56.040Z,2.47
2022-08-22T11:03:25.799Z,2.80
2022-08-22T11:08:14.820Z,2.58
2022-08-22T11:12:36.094Z,3.13
2022-08-22T11:16:59.670Z,2.70
2022-08-22T11:21:33.447Z,2.65
2022-08-22T11:26:05.176Z,2.42
2022-08-22T11:30:29.225Z,3.25
2022-08-22T11:35:13.834Z,2.70
2022-08-22T11:39:45.287Z,2.83
2022-08-22T11:44:50.198Z,2.85
2022-08-22T11:49:20.999Z,2.80
2022-08-22T11:53:45.221Z,2.83
2022-08-22T11:58:20.854Z,2.80
2022-08-22T12:02:45.509Z,2.70
2022-08-22T12:07:20.187Z,2.78
2022-08-22T12:11:59.774Z,2.60
2022-08-22T12:16:30.010Z,2.63
2022-08-22T12:21:01.830Z,2.75
2022-08-22T12:25:30.956Z,2.70
2022-08-22T12:30:05.262Z,2.55
2022-08-22T12:34:34.994Z,2.70
2022-08-22T12:39:07.753Z,2.42
2022-08-22T12:43:42.665Z,2.20
2022-08-22T12:48:16.347Z,2.10
2022-08-22T12:52:49.617Z,2.60
2022-08-22T12:57:35.097Z,2.10
2022-08-22T13:01:50.410Z,2.60
2022-08-22T13:06:07.827Z,2.42
2022-08-22T13:10:31.376Z,2.38
2022-08-22T13:14:46.082Z,2.70
2022-08-22T13:19:07.665Z,2.58
2022-08-22T13:23:26.602Z,2.40
2022-08-22T13:27:51.793Z,2.58
2022-08-22T13:32:04.422Z,2.35
2022-08-22T13:36:21.433Z,2.50
2022-08-22T13:40:35.656Z,2.70
2022-08-22T13:44:53.862Z,2.70
2022-08-22T13:49:09.896Z,2.72
2022-08-22T13:53:50.071Z,2.55
2022-08-22T13:58:34.362Z,2.55
2022-08-22T14:03:05.669Z,2.47
2022-08-22T14:07:32.657Z,2.60
2022-08-22T14:11:50.353Z,2.40
2022-08-22T14:16:06.541Z,2.35
2022-08-22T14:20:33.492Z,2.53
2022-08-22T14:24:55.877Z,2.67
2022-08-22T14:29:14.173Z,2.70
2022-08-22T14:33:35.006Z,2.88
2022-08-22T14:37:51.886Z,2.60
2022-08-22T14:42:12.029Z,2.60
2022-08-22T14:46:53.029Z,2.22
2022-08-22T14:51:10.426Z,2.28
2022-08-22T14:55:26.950Z,2.13
2022-08-22T14:59:52.197Z,2.90
2022-08-22T15:04:16.516Z,2.50
2022-08-22T15:08:34.959Z,2.65
2022-08-22T15:12:51.348Z,2.70
2022-08-22T15:17:06.410Z,2.38
2022-08-22T15:21:24.522Z,2.70
2022-08-22T15:25:41.133Z,2.30
2022-08-22T15:29:57.057Z,2.50
2022-08-22T15:34:43.620Z,2.45
2022-08-22T15:39:16.610Z,2.40
2022-08-22T15:43:35.872Z,2.50
2022-08-22T15:47:52.523Z,2.58
2022-08-22T15:52:08.432Z,2.40
2022-08-22T15:56:27.246Z,2.60
2022-08-22T16:01:02.693Z,2.28
2022-08-22T16:05:14.752Z,2.45
2022-08-22T16:09:50.109Z,2.65
2022-08-22T16:14:22.226Z,2.30
2022-08-22T16:18:33.844Z,2.47
2022-08-22T16:23:08.937Z,2.17
2022-08-22T16:27:25.921Z,2.47
2022-08-22T16:31:56.250Z,2.30
2022-08-22T16:36:20.606Z,2.45
2022-08-22T16:40:47.182Z,2.50
2022-08-22T16:45:05.214Z,2.50
2022-08-22T16:49:39.027Z,2.70
2022-08-22T16:54:10.345Z,2.30
2022-08-22T16:58:50.152Z,2.30
2022-08-22T17:03:18.119Z,2.30
2022-08-22T17:07:44.902Z,2.42
2022-08-22T17:12:02.016Z,2.42
2022-08-22T17:16:41.263Z,2.72
2022-08-22T17:21:17.593Z,2.47
2022-08-22T17:25:36.091Z,2.28
2022-08-22T17:30:07.068Z,2.70
2022-08-22T17:34:40.018Z,2.75
2022-08-22T17:39:35.276Z,2.30
2022-08-22T17:43:55.631Z,2.20
2022-08-22T17:48:12.871Z,2.30
2022-08-22T17:52:36.464Z,2.05
2022-08-22T17:57:00.437Z,2.47
2022-08-22T18:01:43.866Z,2.30
2022-08-22T18:06:05.867Z,2.25
2022-08-22T18:10:17.389Z,2.58
2022-08-22T18:14:52.619Z,2.80
2022-08-22T18:19:12.358Z,3.15
2022-08-22T18:23:39.741Z,3.17
2022-08-22T18:28:06.365Z,2.97
2022-08-22T18:32:36.050Z,2.78
2022-08-22T18:37:01.660Z,2.60
2022-08-22T18:41:38.286Z,2.90
2022-08-22T18:45:50.391Z,2.72
2022-08-22T18:50:32.591Z,2.80
2022-08-22T18:55:10.045Z,2.97
2022-08-22T19:00:09.021Z,2.95
2022-08-22T19:05:17.964Z,3.30
2022-08-22T19:09:58.167Z,2.83
2022-08-22T19:14:24.061Z,3.17
2022-08-22T19:18:54.142Z,2.70
2022-08-22T19:23:33.601Z,2.95
2022-08-22T19:28:05.847Z,3.03
2022-08-22T19:32:45.165Z,3.30
2022-08-22T19:37:33.314Z,3.03
2022-08-22T19:41:53.062Z,2.92
2022-08-22T19:46:14.805Z,3.88
2022-08-22T19:50:31.824Z,3.58
2022-08-22T19:55:09.328Z,3.25
2022-08-22T19:59:39.706Z,3.03
2022-08-22T20:04:08.496Z,3.38
2022-08-22T20:08:35.666Z,3.38
2022-08-22T20:13:05.474Z,3.28
2022-08-22T20:17:25.422Z,3.58
2022-08-22T20:21:39.137Z,3.25
2022-08-22T20:25:52.952Z,3.25
2022-08-22T20:30:17.897Z,3.15
2022-08-22T20:34:36.427Z,3.28
2022-08-22T20:38:55.426Z,3.38
2022-08-22T20:43:40.571Z,3.22
2022-08-22T20:47:52.404Z,3.20
2022-08-22T20:52:26.175Z,3.20
2022-08-22T20:56:52.994Z,3.25
2022-08-22T21:01:06.961Z,3.17
2022-08-22T21:05:22.451Z,3.03
2022-08-22T21:10:06.414Z,3.40
2022-08-22T21:14:26.241Z,3.10
2022-08-22T21:18:41.665Z,3.00
2022-08-22T21:22:53.227Z,3.15
2022-08-22T21:27:06.669Z,3.00
